Time;durP1;ratioP1;P1;durP2;ratioP2;P2;SDS_P1;SDS_P2;PMS_P1;PMS_P2;Temp;Humidity;BMP_temperature;BMP_pressure;BME280_temperature;BME280_humidity;BME280_pressure;Samples;Min_cycle;Max_cycle;Signal;HPM_P1;HPM_P2
2023/01/28 00:29:32;;;;;;;0.00;0.00;;;;;;;2.32;100.00;101950.00;3833086;23;20324;-72
2023/01/28 00:31:58;;;;;;;0.00;0.00;;;;;;;2.33;100.00;101950.88;4919223;29;20047;-72
2023/01/28 00:34:23;;;;;;;0.00;0.00;;;;;;;2.34;100.00;101952.56;4928952;29;20031;-71
2023/01/28 00:36:56;;;;;;;0.00;0.00;;;;;;;2.34;100.00;101944.47;4895866;29;20032;-72
2023/01/28 00:39:23;;;;;;;0.00;0.00;;;;;;;2.29;100.00;101952.22;4913605;29;20393;-72
2023/01/28 00:41:48;;;;;;;0.00;0.00;;;;;;;2.23;100.00;101946.53;4913398;29;20034;-72
2023/01/28 00:44:14;;;;;;;0.08;0.08;;;;;;;2.22;100.00;101943.97;4909934;29;20035;-72
2023/01/28 00:46:40;;;;;;;0.00;0.00;;;;;;;2.17;100.00;101947.19;4927956;29;20028;-71
2023/01/28 00:49:06;;;;;;;0.00;0.00;;;;;;;2.08;100.00;101948.25;4925653;29;20032;-71
2023/01/28 00:51:32;;;;;;;0.00;0.00;;;;;;;2.00;100.00;101950.94;4905647;29;20032;-72
2023/01/28 00:53:57;;;;;;;0.10;0.10;;;;;;;1.94;100.00;101957.03;4914954;29;20035;-71
2023/01/28 00:56:23;;;;;;;0.00;0.00;;;;;;;1.88;100.00;101954.03;4903452;29;20127;-72
2023/01/28 00:58:48;;;;;;;0.00;0.00;;;;;;;1.96;100.00;101961.25;4918782;29;20095;-72
2023/01/28 01:01:20;;;;;;;0.00;0.00;;;;;;;1.99;100.00;101954.69;4879203;29;20375;-71
2023/01/28 01:03:47;;;;;;;0.00;0.00;;;;;;;2.00;100.00;101967.13;4906522;29;20611;-71
2023/01/28 01:06:14;;;;;;;0.00;0.00;;;;;;;1.97;100.00;101962.09;4931383;29;20442;-73
2023/01/28 01:08:41;;;;;;;0.00;0.00;;;;;;;1.97;100.00;101962.09;4931422;29;20039;-71
2023/01/28 01:11:09;;;;;;;0.00;0.00;;;;;;;1.94;100.00;101954.34;4918232;29;20367;-72
2023/01/28 01:13:35;;;;;;;0.00;0.00;;;;;;;1.98;100.00;101964.63;4915264;29;20019;-73
2023/01/28 01:16:10;;;;;;;0.00;0.00;;;;;;;1.95;100.00;101958.72;4930283;29;20102;-71
2023/01/28 01:18:36;;;;;;;0.00;0.00;;;;;;;2.04;100.00;101960.38;4914271;29;20020;-73
2023/01/28 01:21:06;;;;;;;0.00;0.00;;;;;;;2.05;100.00;101954.00;4920312;29;20031;-71
2023/01/28 01:23:31;;;;;;;0.00;0.00;;;;;;;2.12;100.00;101962.22;4918148;29;20040;-71
2023/01/28 01:25:57;;;;;;;0.00;0.00;;;;;;;2.14;100.00;101961.03;4935862;29;20042;-71
2023/01/28 01:28:23;;;;;;;0.00;0.00;;;;;;;2.16;100.00;101961.72;4916733;29;20042;-71
2023/01/28 01:30:49;;;;;;;0.00;0.00;;;;;;;2.16;100.00;101956.34;4918326;28;20056;-73
2023/01/28 01:33:15;;;;;;;0.00;0.00;;;;;;;2.20;100.00;101963.03;4928361;29;20059;-72
2023/01/28 01:35:41;;;;;;;0.00;0.00;;;;;;;2.23;100.00;101962.72;4930054;29;20549;-72
2023/01/28 01:38:07;;;;;;;0.00;0.00;;;;;;;2.25;100.00;101949.06;4926575;29;20039;-71
2023/01/28 01:40:33;;;;;;;0.10;0.10;;;;;;;2.32;100.00;101952.72;4915708;29;20479;-72
2023/01/28 01:42:58;;;;;;;0.00;0.00;;;;;;;2.34;100.00;101964.19;4931340;29;20592;-72
2023/01/28 01:45:25;;;;;;;0.00;0.00;;;;;;;2.37;100.00;101950.34;4930973;29;20422;-72
2023/01/28 01:48:14;;;;;;;0.00;0.00;;;;;;;2.41;100.00;101954.38;4919079;29;20032;-71
2023/01/28 01:50:53;;;;;;;0.00;0.00;;;;;;;2.45;100.00;101960.28;4932093;29;20031;-70
2023/01/28 01:53:21;;;;;;;0.00;0.00;;;;;;;2.48;100.00;101959.09;4926418;29;20027;-70
2023/01/28 01:55:50;;;;;;;0.00;0.00;;;;;;;2.47;100.00;101958.25;4932853;29;20016;-71
2023/01/28 01:58:20;;;;;;;0.00;0.00;;;;;;;2.46;100.00;101956.56;4928804;29;20028;-70
2023/01/28 02:00:46;;;;;;;0.00;0.00;;;;;;;2.46;100.00;101950.34;4930004;29;20028;-70
2023/01/28 02:03:11;;;;;;;0.00;0.00;;;;;;;2.49;100.00;101949.97;4918282;29;20031;-70
2023/01/28 02:05:38;;;;;;;0.10;0.10;;;;;;;2.53;100.00;101956.72;4928927;29;20032;-71
2023/01/28 02:08:19;;;;;;;0.00;0.00;;;;;;;2.50;100.00;101949.81;4911262;29;20521;-71
2023/01/28 02:10:53;;;;;;;0.00;0.00;;;;;;;2.49;100.00;101939.19;4927007;29;20028;-72
2023/01/28 02:13:21;;;;;;;0.00;0.00;;;;;;;2.46;100.00;101940.34;4929677;29;20412;-72
2023/01/28 02:15:48;;;;;;;0.00;0.00;;;;;;;2.54;100.00;101955.69;4928602;29;20481;-71
2023/01/28 02:18:14;;;;;;;0.00;0.00;;;;;;;2.53;100.00;101957.56;4935342;29;20090;-71
2023/01/28 02:20:51;;;;;;;0.00;0.00;;;;;;;2.50;100.00;101952.50;4940072;29;20627;-72
2023/01/28 02:23:25;;;;;;;0.00;0.00;;;;;;;2.54;100.00;101959.25;4926235;29;20099;-71
2023/01/28 02:26:09;;;;;;;0.00;0.00;;;;;;;2.51;100.00;101962.28;4934240;29;20059;-72
2023/01/28 02:28:53;;;;;;;0.00;0.00;;;;;;;2.47;100.00;101958.25;4947433;29;20031;-71
2023/01/28 02:31:41;;;;;;;0.00;0.00;;;;;;;2.47;100.00;101963.66;4945580;28;20315;-73
2023/01/28 02:34:31;;;;;;;0.00;0.00;;;;;;;2.43;100.00;101956.91;4955233;28;20015;-71
2023/01/28 02:37:03;;;;;;;0.00;0.00;;;;;;;2.42;100.00;101955.22;4947479;28;20031;-72
2023/01/28 02:39:34;;;;;;;0.00;0.00;;;;;;;2.39;100.00;101951.00;4933521;28;20068;-71
2023/01/28 02:42:12;;;;;;;0.00;0.00;;;;;;;2.50;100.00;101968.69;4925790;28;20027;-73
2023/01/28 02:44:37;;;;;;;0.00;0.00;;;;;;;2.50;100.00;101968.69;4917526;28;20043;-72
2023/01/28 02:49:56;;;;;;;0.00;0.00;;;;;;;2.53;100.00;101973.75;4937340;28;20116;-73
2023/01/28 02:55:35;;;;;;;0.00;0.00;;;;;;;2.46;100.00;101977.34;4945847;28;20163;-73
2023/01/28 02:58:16;;;;;;;0.00;0.00;;;;;;;2.44;100.00;101980.22;4937541;28;20033;-73
2023/01/28 03:01:00;;;;;;;0.00;0.00;;;;;;;2.46;100.00;101978.16;4948864;28;20466;-72
2023/01/28 03:03:38;;;;;;;0.00;0.00;;;;;;;2.44;100.00;101985.63;4931556;28;20118;-72
2023/01/28 03:06:09;;;;;;;0.00;0.00;;;;;;;2.41;100.00;101989.50;4927158;29;20027;-72
2023/01/28 03:36:54;;;;;;;0.00;0.00;;;;;;;2.34;100.00;102002.00;4945180;28;20093;-73
2023/01/28 03:39:25;;;;;;;0.00;0.00;;;;;;;2.38;100.00;102013.28;4942863;28;20027;-73
2023/01/28 03:42:02;;;;;;;0.00;0.00;;;;;;;2.40;100.00;102017.50;4930152;29;20122;-72
2023/01/28 03:47:11;;;;;;;0.00;0.00;;;;;;;2.45;100.00;102011.56;4953922;28;20070;-73
2023/01/28 03:49:39;;;;;;;0.00;0.00;;;;;;;2.44;100.00;102010.75;4950182;28;20059;-73
2023/01/28 03:52:05;;;;;;;0.00;0.00;;;;;;;2.48;100.00;102003.13;4945027;28;20474;-72
2023/01/28 03:54:30;;;;;;;0.00;0.00;;;;;;;2.49;100.00;102004.81;4907700;28;20122;-73
2023/01/28 03:56:55;;;;;;;0.00;0.00;;;;;;;2.51;100.00;101994.69;4921917;28;20036;-73
2023/01/28 03:59:21;;;;;;;0.00;0.00;;;;;;;2.53;100.00;101998.06;4915081;29;20023;-74
2023/01/28 04:01:49;;;;;;;0.00;0.00;;;;;;;2.54;100.00;102007.00;4899976;28;20031;-73
2023/01/28 04:04:22;;;;;;;0.00;0.00;;;;;;;2.60;100.00;102000.91;4902781;28;20035;-72
2023/01/28 04:06:51;;;;;;;0.00;0.00;;;;;;;2.60;100.00;102006.31;4916196;28;20536;-72
2023/01/28 04:09:17;;;;;;;0.00;0.00;;;;;;;2.57;100.00;102002.09;4922716;28;20031;-72
2023/01/28 04:11:42;;;;;;;0.00;0.00;;;;;;;2.60;100.00;101995.50;4926297;29;20035;-73
2023/01/28 04:14:08;;;;;;;0.00;0.00;;;;;;;2.58;100.00;101997.53;4953309;28;20035;-72
2023/01/28 04:16:33;;;;;;;0.10;0.10;;;;;;;2.57;100.00;101991.28;4898621;29;20064;-74
2023/01/28 04:18:59;;;;;;;0.10;0.10;;;;;;;2.61;100.00;101998.03;4926950;29;20027;-73
2023/01/28 04:21:24;;;;;;;0.00;0.00;;;;;;;2.60;100.00;102001.75;4899001;28;20129;-72
2023/01/28 04:23:51;;;;;;;0.00;0.00;;;;;;;2.59;100.00;101999.22;4912602;28;20097;-74
2023/01/28 04:26:16;;;;;;;0.00;0.00;;;;;;;2.62;100.00;101997.00;4921471;29;20024;-73
2023/01/28 04:28:42;;;;;;;0.00;0.00;;;;;;;2.59;100.00;101993.81;4954017;28;20040;-74
2023/01/28 04:31:07;;;;;;;0.00;0.00;;;;;;;2.60;100.00;101987.41;4955271;28;20035;-71
2023/01/28 04:33:33;;;;;;;0.00;0.00;;;;;;;2.57;100.00;101985.91;4924392;28;20035;-73
2023/01/28 04:35:58;;;;;;;0.00;0.00;;;;;;;2.50;100.00;101990.31;4958022;28;20046;-72
2023/01/28 04:38:24;;;;;;;0.00;0.00;;;;;;;2.50;100.00;101984.91;4952559;28;20030;-72
2023/01/28 04:40:53;;;;;;;0.00;0.00;;;;;;;2.56;100.00;102000.41;4921391;28;20068;-73
2023/01/28 04:43:19;;;;;;;0.00;0.00;;;;;;;2.53;100.00;101989.97;4942883;28;20024;-73
2023/01/28 04:45:48;;;;;;;0.00;0.00;;;;;;;2.54;100.00;101986.25;4954111;28;20031;-74
2023/01/28 04:48:14;;;;;;;0.00;0.00;;;;;;;2.57;100.00;102002.09;4927186;29;20019;-71
2023/01/28 04:50:41;;;;;;;0.00;0.00;;;;;;;2.59;100.00;102004.63;4956568;28;20443;-72
2023/01/28 04:53:06;;;;;;;0.00;0.00;;;;;;;2.60;100.00;101995.50;4939758;29;20027;-73
2023/01/28 04:55:32;;;;;;;0.00;0.00;;;;;;;2.63;100.00;101989.75;4937659;28;20494;-72
2023/01/28 04:57:57;;;;;;;0.00;0.00;;;;;;;2.60;100.00;101987.41;4956587;28;20075;-72
2023/01/28 05:00:23;;;;;;;0.00;0.00;;;;;;;2.62;100.00;101994.31;4926006;28;20035;-71
2023/01/28 05:02:48;;;;;;;0.00;0.00;;;;;;;2.65;100.00;101984.19;4954365;28;20592;-72
2023/01/28 05:05:14;;;;;;;0.00;0.00;;;;;;;2.67;100.00;101971.31;4957306;28;20031;-72
2023/01/28 05:07:39;;;;;;;0.00;0.00;;;;;;;2.62;100.00;101972.69;4935921;29;20114;-73
2023/01/28 05:10:05;;;;;;;0.00;0.00;;;;;;;2.66;100.00;101983.13;4916104;29;20066;-72
2023/01/28 05:12:31;;;;;;;0.00;0.00;;;;;;;2.64;100.00;101987.88;4933625;29;20063;-72
2023/01/28 05:14:59;;;;;;;0.00;0.00;;;;;;;2.61;100.00;101980.97;4908716;29;20029;-75
2023/01/28 05:17:25;;;;;;;0.00;0.00;;;;;;;2.62;100.00;101983.50;4926792;28;20690;-72
2023/01/28 05:19:51;;;;;;;0.00;0.00;;;;;;;2.61;100.00;101989.94;4927223;29;20027;-72
2023/01/28 05:22:16;;;;;;;0.00;0.00;;;;;;;2.59;100.00;101983.03;4925942;28;20038;-72
2023/01/28 05:24:42;;;;;;;0.00;0.00;;;;;;;2.61;100.00;101989.94;4912645;28;20027;-72
2023/01/28 05:27:07;;;;;;;0.00;0.00;;;;;;;2.61;100.00;101987.25;4932664;29;20031;-74
2023/01/28 05:29:33;;;;;;;0.00;0.00;;;;;;;2.61;100.00;101976.44;4928719;28;20473;-72
2023/01/28 05:32:01;;;;;;;0.00;0.00;;;;;;;2.61;100.00;101987.25;4941851;28;20032;-73
2023/01/28 05:34:26;;;;;;;0.00;0.00;;;;;;;2.62;100.00;101994.31;4918550;29;20034;-73
2023/01/28 05:36:51;;;;;;;0.00;0.00;;;;;;;2.66;100.00;102004.75;4921863;28;20031;-72
2023/01/28 05:39:17;;;;;;;0.00;0.00;;;;;;;2.66;100.00;101999.34;4956337;29;20062;-73
2023/01/28 05:41:44;;;;;;;0.00;0.00;;;;;;;2.71;100.00;102007.78;4953703;28;20158;-74
2023/01/28 05:44:09;;;;;;;0.00;0.00;;;;;;;2.73;100.00;102016.53;4938160;29;20035;-72
2023/01/28 05:46:35;;;;;;;0.00;0.00;;;;;;;2.73;100.00;102006.59;4936654;28;20109;-72
2023/01/28 05:49:00;;;;;;;0.00;0.00;;;;;;;2.75;100.00;102019.94;4936871;29;20035;-73
2023/01/28 05:51:25;;;;;;;0.00;0.00;;;;;;;2.77;100.00;102007.06;4918707;28;20027;-74
2023/01/28 05:53:51;;;;;;;0.00;0.00;;;;;;;2.80;100.00;102012.13;4920301;29;20031;-73
2023/01/28 05:56:16;;;;;;;0.08;0.08;;;;;;;2.80;100.00;102012.13;4936760;29;20473;-73
2023/01/28 05:58:42;;;;;;;0.00;0.00;;;;;;;2.78;100.00;102008.78;4921449;29;20038;-73
2023/01/28 06:01:07;;;;;;;0.00;0.00;;;;;;;2.78;100.00;102004.19;4906383;28;20034;-72
2023/01/28 06:03:32;;;;;;;0.00;0.00;;;;;;;2.78;100.00;102004.19;4936459;29;20042;-73
2023/01/28 06:05:58;;;;;;;0.00;0.00;;;;;;;2.80;100.00;102017.53;4896500;28;20037;-73
2023/01/28 06:08:23;;;;;;;0.00;0.00;;;;;;;2.76;100.00;102005.38;4955453;28;20027;-73
2023/01/28 06:10:49;;;;;;;0.00;0.00;;;;;;;2.78;100.00;102014.19;4952107;28;20041;-72
2023/01/28 06:13:14;;;;;;;0.00;0.00;;;;;;;2.83;100.00;102024.44;4929988;29;20073;-73
2023/01/28 06:15:40;;;;;;;0.00;0.00;;;;;;;2.82;100.00;102015.50;4930921;29;20047;-74
2023/01/28 06:18:05;;;;;;;0.00;0.00;;;;;;;2.81;100.00;102019.22;4931844;29;20035;-73
2023/01/28 06:20:30;;;;;;;0.00;0.00;;;;;;;2.81;100.00;102013.00;4946231;28;20038;-73
2023/01/28 06:22:56;;;;;;;0.10;0.10;;;;;;;2.79;100.00;102011.28;4923651;29;20023;-73
2023/01/28 06:25:21;;;;;;;0.00;0.00;;;;;;;2.83;100.00;102027.97;4940308;29;20037;-74
2023/01/28 06:27:47;;;;;;;0.00;0.00;;;;;;;2.79;100.00;102019.41;4974440;23;20090;-72
2023/01/28 06:30:12;;;;;;;0.00;0.00;;;;;;;2.84;100.00;102026.97;4942721;28;20047;-73
2023/01/28 06:32:38;;;;;;;0.00;0.00;;;;;;;2.85;100.00;102034.06;4948550;28;20036;-73
2023/01/28 06:35:04;;;;;;;0.00;0.00;;;;;;;2.83;100.00;102027.97;4949558;28;20078;-73
2023/01/28 06:37:29;;;;;;;0.00;0.00;;;;;;;2.86;100.00;102022.25;4948609;28;20094;-73
2023/01/28 06:39:54;;;;;;;0.00;0.00;;;;;;;2.85;100.00;102025.97;4940912;28;20809;-72
2023/01/28 06:42:20;;;;;;;0.00;0.00;;;;;;;2.81;100.00;102021.94;4934309;29;20034;-72
2023/01/28 06:44:46;;;;;;;0.00;0.00;;;;;;;2.81;100.00;102019.22;4928657;28;20050;-73
2023/01/28 06:47:13;;;;;;;0.00;0.00;;;;;;;2.79;100.00;102018.56;4948011;28;20386;-72
2023/01/28 06:49:39;;;;;;;0.00;0.00;;;;;;;2.76;100.00;102010.78;4942656;28;20151;-74
2023/01/28 06:52:04;;;;;;;0.00;0.00;;;;;;;2.73;100.00;102013.84;4932498;29;20656;-74
2023/01/28 06:54:29;;;;;;;0.00;0.00;;;;;;;2.75;100.00;102030.75;4945540;28;20032;-74
2023/01/28 06:56:55;;;;;;;0.00;0.00;;;;;;;2.74;100.00;102024.47;4933094;29;20027;-73
2023/01/28 06:59:20;;;;;;;0.00;0.00;;;;;;;2.72;100.00;102021.13;4944650;28;20039;-73
2023/01/28 07:01:46;;;;;;;0.00;0.00;;;;;;;2.73;100.00;102016.53;4932088;28;20035;-73
2023/01/28 07:04:11;;;;;;;0.00;0.00;;;;;;;2.67;100.00;102011.84;4945009;28;20133;-74
2023/01/28 07:06:37;;;;;;;0.00;0.00;;;;;;;2.64;100.00;102015.72;4939325;28;20038;-73
2023/01/28 07:09:19;;;;;;;0.00;0.00;;;;;;;2.58;100.00;102014.56;4946271;28;20558;-73
2023/01/28 07:11:57;;;;;;;0.00;0.00;;;;;;;2.58;100.00;102025.38;4947342;28;20119;-74
2023/01/28 07:14:38;;;;;;;0.00;0.00;;;;;;;2.37;100.00;101982.75;4942726;28;20714;-73
2023/01/28 07:17:11;;;;;;;0.00;0.00;;;;;;;2.47;100.00;101995.19;4943700;28;20384;-73
2023/01/28 07:19:36;;;;;;;0.00;0.00;;;;;;;2.58;100.00;102014.56;4948711;28;20729;-75
2023/01/28 07:22:11;;;;;;;0.00;0.00;;;;;;;2.69;100.00;102032.28;4951143;28;20034;-74
2023/01/28 07:24:36;;;;;;;0.00;0.00;;;;;;;2.67;100.00;102014.56;4927277;29;20821;-75
2023/01/28 07:27:09;;;;;;;0.00;0.00;;;;;;;2.72;100.00;102025.69;4941614;28;20069;-73
2023/01/28 07:29:38;;;;;;;0.00;0.00;;;;;;;2.64;100.00;102006.78;4955484;28;20031;-75
2023/01/28 07:32:06;;;;;;;0.00;0.00;;;;;;;2.74;100.00;102029.03;4933467;28;20114;-74
2023/01/28 07:34:31;;;;;;;0.00;0.00;;;;;;;2.83;100.00;102036.09;4935717;28;20055;-74
2023/01/28 07:36:57;;;;;;;0.00;0.00;;;;;;;2.70;100.00;102009.66;4941489;28;20050;-73
2023/01/28 07:39:23;;;;;;;0.00;0.00;;;;;;;2.73;100.00;102016.53;4951111;28;20031;-73
2023/01/28 07:41:53;;;;;;;0.00;0.00;;;;;;;2.80;100.00;102028.34;4948090;28;20168;-73
2023/01/28 07:44:28;;;;;;;0.00;0.00;;;;;;;2.90;100.00;102044.34;4934877;28;20030;-73
2023/01/28 07:47:14;;;;;;;0.00;0.00;;;;;;;2.92;100.00;102053.97;4936040;28;20037;-73
2023/01/28 07:49:42;;;;;;;0.00;0.00;;;;;;;2.84;100.00;102028.84;4944869;28;20088;-72
2023/01/28 07:52:08;;;;;;;0.00;0.00;;;;;;;2.85;100.00;102036.78;4950851;28;20020;-73
2023/01/28 07:54:36;;;;;;;0.00;0.00;;;;;;;2.81;100.00;102018.38;4947387;28;20031;-73
2023/01/28 07:57:08;;;;;;;0.00;0.00;;;;;;;2.98;100.00;102057.84;4950462;28;20098;-73
2023/01/28 07:59:34;;;;;;;0.00;0.00;;;;;;;2.89;100.00;102038.13;4948003;28;20038;-73
2023/01/28 08:02:16;;;;;;;0.00;0.00;;;;;;;2.91;100.00;102038.78;4939990;29;20066;-73
2023/01/28 08:04:45;;;;;;;0.00;0.00;;;;;;;3.00;100.00;102054.97;4946988;28;20027;-73
2023/01/28 08:07:11;;;;;;;0.00;0.00;;;;;;;2.98;100.00;102049.72;4954997;28;20406;-73
2023/01/28 08:09:37;;;;;;;0.00;0.00;;;;;;;2.94;100.00;102040.28;4946187;28;20145;-73
2023/01/28 08:12:02;;;;;;;0.00;0.00;;;;;;;2.96;100.00;102049.03;4949389;28;20581;-72
2023/01/28 08:14:31;;;;;;;0.00;0.00;;;;;;;2.89;100.00;102043.53;4935980;28;20031;-73
2023/01/28 08:16:59;;;;;;;0.00;0.00;;;;;;;2.89;100.00;102046.22;4950769;28;20031;-71
2023/01/28 08:19:24;;;;;;;0.08;0.08;;;;;;;2.97;100.00;102056.16;4939710;28;20019;-74
2023/01/28 08:21:50;;;;;;;0.08;0.08;;;;;;;2.92;100.00;102048.56;4957479;28;20400;-73
2023/01/28 08:24:18;;;;;;;0.00;0.00;;;;;;;2.91;100.00;102046.88;4940497;28;20034;-73
2023/01/28 08:26:46;;;;;;;0.00;0.00;;;;;;;2.90;100.00;102050.59;4938674;28;20073;-73
2023/01/28 08:29:12;;;;;;;0.00;0.00;;;;;;;2.97;100.00;102056.97;4950389;28;20027;-72
2023/01/28 08:31:37;;;;;;;0.00;0.00;;;;;;;2.88;100.00;102036.41;4954454;28;20359;-73
2023/01/28 08:34:03;;;;;;;0.00;0.00;;;;;;;3.01;100.00;102053.91;4953354;28;20492;-74
2023/01/28 08:36:28;;;;;;;0.00;0.00;;;;;;;3.06;100.00;102056.94;4952720;28;20035;-73
2023/01/28 08:39:29;;;;;;;0.00;0.00;;;;;;;3.06;100.00;102051.53;4954735;28;20074;-74
2023/01/28 08:42:53;;;;;;;0.00;0.00;;;;;;;3.16;100.00;102062.16;4967226;28;20023;-75
2023/01/28 08:45:32;;;;;;;;;;;;;;;;;;;;;
2023/01/28 08:48:22;;;;;;;0.00;0.00;;;;;;;3.03;100.00;102043.78;4953221;28;20035;-74
2023/01/28 08:50:49;;;;;;;0.00;0.00;;;;;;;3.08;100.00;102052.19;4952954;28;20043;-74
2023/01/28 08:53:22;;;;;;;0.00;0.00;;;;;;;3.09;100.00;102056.59;4952950;28;20654;-75
2023/01/28 08:55:50;;;;;;;0.00;0.00;;;;;;;3.04;100.00;102061.66;4946116;28;20035;-76
2023/01/28 08:58:38;;;;;;;;;;;;;;;;;;;;;
2023/01/28 09:01:07;;;;;;;0.00;0.00;;;;;;;3.04;100.00;102067.94;4952596;28;20016;-75
2023/01/28 09:03:38;;;;;;;0.00;0.00;;;;;;;3.08;100.00;102055.75;4939932;29;20544;-75
2023/01/28 09:06:05;;;;;;;0.00;0.00;;;;;;;3.12;100.00;102040.03;4937046;29;20114;-75
2023/01/28 09:08:57;;;;;;;;;;;;;;;;;;;;;
2023/01/28 09:11:44;;;;;;;0.00;0.00;;;;;;;3.16;100.00;102038.66;4949971;28;20374;-77
2023/01/28 09:14:17;;;;;;;0.00;0.00;;;;;;;3.47;100.00;102083.75;4945097;28;20063;-79
2023/01/28 09:17:00;;;;;;;;;;;;;;;;;;;;;
2023/01/28 09:19:49;;;;;;;0.00;0.00;;;;;;;3.47;100.00;102040.50;4954124;29;20019;-76
2023/01/28 09:22:27;;;;;;;;;;;;;;;;;;;;;
2023/01/28 09:24:53;;;;;;;0.00;0.00;;;;;;;3.60;100.00;102050.72;4951389;28;20035;-75
2023/01/28 09:27:24;;;;;;;0.00;0.00;;;;;;;3.66;100.00;102061.69;4950529;28;20533;-75
2023/01/28 09:29:49;;;;;;;0.00;0.00;;;;;;;3.87;100.00;102079.13;4952037;28;20055;-77
2023/01/28 09:33:06;;;;;;;0.00;0.00;;;;;;;3.93;100.00;102086.50;4954060;28;20038;-78
2023/01/28 09:35:35;;;;;;;0.00;0.00;;;;;;;3.87;100.00;102084.53;4958410;28;20037;-77
2023/01/28 09:38:01;;;;;;;0.00;0.00;;;;;;;3.84;100.00;102084.88;4950997;28;20020;-77
2023/01/28 09:40:39;;;;;;;0.00;0.00;;;;;;;3.78;100.00;102082.88;4954327;28;20029;-76
2023/01/28 09:43:30;;;;;;;;;;;;;;;;;;;;;
2023/01/28 09:45:59;;;;;;;0.00;0.00;;;;;;;4.02;100.00;102103.53;4954236;28;20031;-77
2023/01/28 09:48:39;;;;;;;0.00;0.00;;;;;;;4.02;100.00;102088.13;4952693;28;20019;-78
2023/01/28 09:51:27;;;;;;;0.10;0.10;;;;;;;4.19;100.00;102094.25;4951256;28;20031;-76
2023/01/28 09:53:57;;;;;;;0.00;0.00;;;;;;;4.29;100.00;102083.16;4968201;28;20148;-76
2023/01/28 09:56:30;;;;;;;0.00;0.00;;;;;;;4.39;100.00;102074.75;4953950;28;20023;-75
2023/01/28 09:59:05;;;;;;;0.00;0.00;;;;;;;4.60;100.00;102095.72;4947929;28;20038;-76
2023/01/28 10:02:03;;;;;;;;;;;;;;;4.81;100.00;102099.56;4951747;28;20030;-76
2023/01/28 10:04:57;;;;;;;0.00;0.00;;;;;;;4.94;100.00;102091.63;4966348;28;19911;-75
2023/01/28 10:07:50;;;;;;;0.00;0.00;;;;;;;5.03;100.00;102095.06;4949694;28;20442;-75
2023/01/28 10:10:47;;;;;;;0.00;0.00;;;;;;;5.12;100.00;102087.66;4948740;28;20592;-75
2023/01/28 10:13:36;;;;;;;0.00;0.00;;;;;;;5.15;100.00;102079.16;4937351;28;20028;-77
2023/01/28 10:16:20;;;;;;;0.00;0.00;;;;;;;5.28;100.00;102087.44;4941322;28;20466;-76
2023/01/28 10:18:55;;;;;;;0.00;0.00;;;;;;;5.34;100.00;102097.53;4948536;28;20037;-77
2023/01/28 10:21:23;;;;;;;;;;;;;;;5.40;100.00;102096.81;4948860;28;20078;-78
2023/01/28 10:24:14;;;;;;;0.00;0.00;;;;;;;5.36;100.00;102079.22;4951789;28;19910;-77
2023/01/28 10:26:42;;;;;;;0.00;0.00;;;;;;;5.51;100.00;102075.63;4949964;28;20102;-79
2023/01/28 10:29:28;;;;;;;0.10;0.10;;;;;;;5.73;100.00;102085.44;4945654;28;20054;-77
2023/01/28 10:32:13;;;;;;;0.00;0.00;;;;;;;5.91;100.00;102071.44;4948883;28;20055;-77
2023/01/28 10:34:39;;;;;;;0.00;0.00;;;;;;;6.04;100.00;102070.72;4952040;28;20035;-76
2023/01/28 10:37:04;;;;;;;0.00;0.00;;;;;;;6.09;100.00;102046.56;4919823;29;20038;-78
2023/01/28 10:39:30;;;;;;;0.00;0.00;;;;;;;6.38;100.00;102058.28;4937174;29;20046;-76
2023/01/28 10:41:55;;;;;;;0.00;0.00;;;;;;;6.60;100.00;102047.31;4929727;29;20046;-78
2023/01/28 10:44:31;;;;;;;0.00;0.00;;;;;;;6.66;100.00;102045.69;4933663;28;20034;-77
2023/01/28 10:47:00;;;;;;;0.00;0.00;;;;;;;6.76;100.00;102049.72;4947257;28;20038;-76
2023/01/28 10:49:28;;;;;;;0.00;0.00;;;;;;;7.04;100.00;102048.81;4950876;28;20481;-78
2023/01/28 10:51:53;;;;;;;0.00;0.00;;;;;;;7.17;100.00;102048.03;4949346;28;20031;-75
2023/01/28 10:54:25;;;;;;;0.00;0.00;;;;;;;7.25;100.00;102038.84;4920104;29;20038;-76
2023/01/28 10:56:58;;;;;;;0.00;0.00;;;;;;;7.28;100.00;102025.66;4948604;28;20034;-79
2023/01/28 10:59:27;;;;;;;0.00;0.00;;;;;;;7.57;100.00;102026.38;4941104;28;20118;-79
2023/01/28 11:02:03;;;;;;;0.00;0.00;;;;;;;7.86;100.00;102025.13;4951633;28;20078;-78
2023/01/28 11:04:32;;;;;;;0.00;0.00;;;;;;;7.84;100.00;102038.13;4952716;28;20098;-78
2023/01/28 11:07:06;;;;;;;0.00;0.00;;;;;;;7.53;100.00;102018.81;4955326;28;20617;-77
2023/01/28 11:09:34;;;;;;;0.00;0.00;;;;;;;7.32;100.00;102020.66;4948516;28;20023;-77
2023/01/28 11:12:24;;;;;;;0.00;0.00;;;;;;;7.28;100.00;102022.13;4948318;29;20038;-76
2023/01/28 11:15:01;;;;;;;0.00;0.00;;;;;;;7.32;100.00;102017.94;4942708;29;20485;-77
2023/01/28 11:17:33;;;;;;;0.00;0.00;;;;;;;7.64;100.00;102004.59;4945671;28;20035;-78
2023/01/28 11:20:17;;;;;;;0.00;0.00;;;;;;;7.99;100.00;102012.59;4945585;28;20433;-76
2023/01/28 11:22:44;;;;;;;0.00;0.00;;;;;;;8.28;100.00;102016.75;4944592;28;20523;-76
2023/01/28 11:25:27;;;;;;;0.00;0.00;;;;;;;8.33;100.00;102011.50;4948132;28;20388;-76
2023/01/28 11:27:54;;;;;;;0.00;0.00;;;;;;;8.21;100.00;102014.03;4938144;28;20111;-77
2023/01/28 11:30:21;;;;;;;0.00;0.00;;;;;;;8.08;100.00;102014.03;4951919;28;20086;-77
2023/01/28 11:32:54;;;;;;;0.00;0.00;;;;;;;7.96;100.00;102023.91;4950793;29;20082;-73
2023/01/28 11:35:29;;;;;;;0.00;0.00;;;;;;;7.75;100.00;102012.13;4940277;29;20389;-76
2023/01/28 11:37:58;;;;;;;0.00;0.00;;;;;;;7.42;100.00;102001.22;4952118;28;20031;-77
2023/01/28 11:40:24;;;;;;;0.00;0.00;;;;;;;7.28;100.00;102005.78;4949255;28;20548;-77
2023/01/28 11:43:07;;;;;;;;;;;;;;;;;;;;;
2023/01/28 11:46:03;;;;;;;0.00;0.00;;;;;;;7.33;100.00;101992.41;4948299;28;20665;-78
2023/01/28 11:52:07;;;;;;;0.00;0.00;;;;;;;7.46;100.00;102040.56;4828631;29;20033;-73
2023/01/28 11:58:24;;;;;;;;;;;;;;;;;;;;;
2023/01/28 12:01:24;;;;;;;0.00;0.00;;;;;;;7.38;100.00;102033.44;4951011;28;20029;-75
2023/01/28 12:04:09;;;;;;;0.00;0.00;;;;;;;7.42;100.00;102051.03;4947617;28;20027;-72
2023/01/28 12:07:02;;;;;;;;;;;;;;;;;;;;;
2023/01/28 12:09:57;;;;;;;0.00;0.00;;;;;;;7.24;100.00;102046.19;4950541;28;20033;-73
2023/01/28 12:12:55;;;;;;;0.00;0.00;;;;;;;7.19;100.00;102048.66;4941657;28;20059;-74
2023/01/28 12:15:48;;;;;;;0.00;0.00;;;;;;;7.08;100.00;102039.22;4949866;29;20019;-75
2023/01/28 12:18:28;;;;;;;0.00;0.00;;;;;;;7.19;100.00;102028.78;4947357;28;20331;-73
2023/01/28 12:21:07;;;;;;;0.00;0.00;;;;;;;7.19;100.00;102015.19;4940669;28;20121;-73
2023/01/28 12:24:03;;;;;;;0.00;0.00;;;;;;;7.44;100.00;102032.63;4949239;29;20102;-73
2023/01/28 12:27:33;;;;;;;0.00;0.00;;;;;;;7.57;100.00;102025.53;4948742;28;20048;-75
2023/01/28 12:30:30;;;;;;;0.00;0.00;;;;;;;7.84;100.00;102032.69;4947075;28;20742;-74
2023/01/28 12:36:43;;;;;;;0.00;0.00;;;;;;;8.36;100.00;102012.97;4873600;29;20152;-75
2023/01/28 12:39:35;;;;;;;0.00;0.00;;;;;;;8.53;100.00;102018.84;4858834;29;20504;-76
2023/01/28 12:42:04;;;;;;;0.00;0.00;;;;;;;8.41;100.00;102021.34;4962450;28;20027;-76
2023/01/28 12:44:39;;;;;;;0.00;0.00;;;;;;;8.26;100.00;102020.72;4951310;28;20031;-75
2023/01/28 12:47:12;;;;;;;0.00;0.00;;;;;;;8.12;100.00;102022.63;4948839;28;20050;-77
2023/01/28 12:49:54;;;;;;;0.00;0.00;;;;;;;7.94;100.00;102015.09;4946927;28;20042;-78
2023/01/28 12:52:27;;;;;;;0.00;0.00;;;;;;;7.89;100.00;102018.44;4959193;28;20042;-76
2023/01/28 12:55:13;;;;;;;0.00;0.00;;;;;;;8.10;100.00;102028.28;4955235;28;20083;-76
2023/01/28 13:04:41;;;;;;;0.00;0.00;;;;;;;8.30;100.00;102013.81;4922590;29;20390;-77
2023/01/28 13:07:14;;;;;;;0.00;0.00;;;;;;;8.33;100.00;102007.94;4948052;28;20123;-76
2023/01/28 13:10:04;;;;;;;0.00;0.00;;;;;;;8.16;100.00;101992.03;4950603;28;20514;-77
2023/01/28 13:12:34;;;;;;;0.00;0.00;;;;;;;8.18;100.00;101998.09;4944608;28;20486;-76
2023/01/28 13:15:01;;;;;;;0.00;0.00;;;;;;;8.07;100.00;101982.38;4951046;28;20023;-78
2023/01/28 13:17:29;;;;;;;0.00;0.00;;;;;;;8.06;100.00;101996.22;4936557;28;20371;-77
2023/01/28 13:19:56;;;;;;;0.00;0.00;;;;;;;7.99;100.00;101990.78;4915878;28;20227;-79
2023/01/28 13:22:26;;;;;;;0.00;0.00;;;;;;;7.90;100.00;101982.00;4950314;29;20037;-77